Time;durP1;ratioP1;P1;durP2;ratioP2;P2;SDS_P1;SDS_P2;PMS_P1;PMS_P2;Temp;Humidity;BMP_temperature;BMP_pressure;BME280_temperature;BME280_humidity;BME280_pressure;Samples;Min_cycle;Max_cycle;Signal;HPM_P1;HPM_P2
2023/06/13 00:01:48;;;;;;;1.73;1.40;;;;;;;;;;5551096;28;10000795;-67
2023/06/13 00:04:51;;;;;;;1.80;1.20;;;;;;;;;;6255743;28;20064;-68
2023/06/13 00:07:52;;;;;;;1.65;1.30;;;;;;;;;;6252001;28;20014;-67
2023/06/13 00:10:52;;;;;;;1.30;1.13;;;;;;;;;;6251924;28;20018;-66
2023/06/13 00:13:53;;;;;;;3.93;1.30;;;;;;;;;;6251679;28;20107;-68
2023/06/13 00:16:54;;;;;;;1.60;1.20;;;;;;;;;;6253032;28;20017;-68
2023/06/13 00:19:55;;;;;;;1.42;1.20;;;;;;;;;;6252068;28;20055;-66
2023/06/13 00:22:56;;;;;;;1.90;1.30;;;;;;;;;;6254129;28;20029;-67
2023/06/13 00:25:56;;;;;;;2.58;1.30;;;;;;;;;;6253745;28;20028;-67
2023/06/13 00:28:56;;;;;;;1.90;1.30;;;;;;;;;;6253759;28;20018;-67
2023/06/13 00:31:56;;;;;;;1.13;1.03;;;;;;;;;;6256247;28;20017;-67
2023/06/13 00:34:57;;;;;;;2.73;1.33;;;;;;;;;;6254630;28;20075;-68
2023/06/13 00:37:57;;;;;;;2.40;1.30;;;;;;;;;;6258476;28;20405;-67
2023/06/13 00:40:57;;;;;;;1.37;1.27;;;;;;;;;;6258906;28;20163;-67
2023/06/13 00:43:57;;;;;;;1.60;1.17;;;;;;;;;;6258169;28;20029;-68
2023/06/13 00:46:58;;;;;;;2.90;1.30;;;;;;;;;;6255445;28;20071;-68
2023/06/13 00:49:58;;;;;;;1.20;1.10;;;;;;;;;;6258334;28;20029;-67
2023/06/13 00:52:59;;;;;;;1.53;1.10;;;;;;;;;;6256209;28;20067;-68
2023/06/13 00:56:01;;;;;;;1.75;1.15;;;;;;;;;;6257141;28;21047;-65
2023/06/13 00:59:03;;;;;;;1.60;1.30;;;;;;;;;;6254297;28;20032;-66
2023/06/13 01:02:03;;;;;;;2.50;1.35;;;;;;;;;;6252317;28;20508;-66
2023/06/13 01:05:04;;;;;;;1.60;1.35;;;;;;;;;;6254658;28;20025;-67
2023/06/13 01:08:06;;;;;;;1.60;1.23;;;;;;;;;;6249167;28;20513;-66
2023/06/13 01:11:10;;;;;;;2.22;1.23;;;;;;;;;;6255070;28;20021;-65
2023/06/13 01:14:16;;;;;;;1.08;1.02;;;;;;;;;;6253733;28;20031;-66
2023/06/13 01:17:26;;;;;;;3.38;1.30;;;;;;;;;;6251568;28;20029;-66
2023/06/13 01:20:33;;;;;;;1.98;1.17;;;;;;;;;;6254602;28;20017;-66
2023/06/13 01:23:40;;;;;;;1.73;1.30;;;;;;;;;;6252401;28;20385;-66
2023/06/13 01:26:46;;;;;;;1.63;1.35;;;;;;;;;;6251384;28;20214;-66
2023/06/13 01:29:46;;;;;;;1.13;1.02;;;;;;;;;;6256663;28;20025;-65
2023/06/13 01:32:47;;;;;;;1.65;1.05;;;;;;;;;;6252481;28;20020;-65
2023/06/13 01:35:48;;;;;;;1.77;1.23;;;;;;;;;;6251193;28;20449;-66
2023/06/13 01:38:48;;;;;;;1.30;1.10;;;;;;;;;;6250008;28;20115;-66
2023/06/13 01:41:49;;;;;;;1.20;1.10;;;;;;;;;;6248415;28;20025;-66
2023/06/13 01:44:49;;;;;;;2.33;1.40;;;;;;;;;;6253292;28;20035;-67
2023/06/13 01:47:50;;;;;;;1.87;1.30;;;;;;;;;;6254181;28;20013;-69
2023/06/13 01:50:51;;;;;;;;;;;;;;;;;;6252315;28;20017;-68
2023/06/13 01:53:55;;;;;;;1.63;1.07;;;;;;;;;;6254103;28;20070;-68
2023/06/13 01:56:56;;;;;;;2.85;1.10;;;;;;;;;;6252684;28;20029;-67
2023/06/13 01:59:57;;;;;;;;;;;;;;;;;;6253730;28;20044;-68
2023/06/13 02:02:58;;;;;;;1.08;0.98;;;;;;;;;;5901550;28;10000638;-67
2023/06/13 02:05:58;;;;;;;1.42;1.17;;;;;;;;;;6251447;28;20024;-65
2023/06/13 02:08:58;;;;;;;1.30;1.00;;;;;;;;;;6254764;28;20043;-67
2023/06/13 02:11:59;;;;;;;2.83;1.17;;;;;;;;;;6258196;28;20013;-67
2023/06/13 02:14:59;;;;;;;2.03;1.20;;;;;;;;;;6253765;28;20021;-66
2023/06/13 02:17:59;;;;;;;1.33;1.07;;;;;;;;;;6253539;28;20024;-66
2023/06/13 02:20:59;;;;;;;1.43;1.20;;;;;;;;;;6252002;28;20048;-68
2023/06/13 02:23:59;;;;;;;1.30;1.20;;;;;;;;;;6246756;28;20017;-67
2023/06/13 02:27:00;;;;;;;2.17;1.30;;;;;;;;;;6253852;28;20025;-67
2023/06/13 02:30:00;;;;;;;2.40;1.20;;;;;;;;;;6251442;28;20024;-68
2023/06/13 02:33:01;;;;;;;1.97;1.33;;;;;;;;;;6251191;28;20021;-68
2023/06/13 02:36:01;;;;;;;1.90;1.25;;;;;;;;;;6253758;28;20028;-67
2023/06/13 02:39:02;;;;;;;2.50;1.30;;;;;;;;;;6256598;28;20091;-68
2023/06/13 02:42:02;;;;;;;;;;;;;;;;;;6257585;28;20028;-67
2023/06/13 02:45:03;;;;;;;1.70;1.20;;;;;;;;;;6262108;28;19912;-68
2023/06/13 02:48:03;;;;;;;1.67;1.20;;;;;;;;;;6260673;28;20033;-69
2023/06/13 02:51:07;;;;;;;1.73;1.10;;;;;;;;;;6259266;28;20025;-67
2023/06/13 02:54:07;;;;;;;1.20;1.10;;;;;;;;;;6259154;28;20021;-67
2023/06/13 02:57:09;;;;;;;2.70;1.30;;;;;;;;;;6259594;28;20040;-68
2023/06/13 03:00:10;;;;;;;1.40;1.25;;;;;;;;;;6250794;28;20581;-67
2023/06/13 03:03:11;;;;;;;;;;;;;;;;;;6256145;28;20017;-67
2023/06/13 03:06:11;;;;;;;1.13;0.97;;;;;;;;;;6251868;28;20649;-67
2023/06/13 03:09:11;;;;;;;2.97;1.17;;;;;;;;;;6249020;28;20389;-66
2023/06/13 03:12:12;;;;;;;1.27;1.10;;;;;;;;;;6249597;28;20048;-67
2023/06/13 03:15:12;;;;;;;1.27;1.17;;;;;;;;;;6250148;28;20025;-67
2023/06/13 03:18:13;;;;;;;1.20;1.10;;;;;;;;;;6253316;28;20028;-66
2023/06/13 03:21:13;;;;;;;2.13;1.40;;;;;;;;;;6245724;28;20032;-69
2023/06/13 03:24:14;;;;;;;4.60;1.97;;;;;;;;;;6253776;28;20029;-69
2023/06/13 03:27:14;;;;;;;2.67;1.67;;;;;;;;;;6249559;28;20299;-69
2023/06/13 03:30:14;;;;;;;3.00;1.60;;;;;;;;;;6264778;28;20029;-69
2023/06/13 03:33:15;;;;;;;2.33;1.33;;;;;;;;;;6249826;28;20108;-70
2023/06/13 03:36:15;;;;;;;1.60;1.45;;;;;;;;;;6261520;28;20104;-69
2023/06/13 03:39:16;;;;;;;1.70;1.00;;;;;;;;;;6264122;28;20041;-69
2023/06/13 03:42:16;;;;;;;3.13;1.23;;;;;;;;;;6254744;28;20021;-71
2023/06/13 03:45:17;;;;;;;2.20;1.13;;;;;;;;;;6254156;28;20021;-70
2023/06/13 03:48:17;;;;;;;1.83;1.27;;;;;;;;;;6261464;28;20009;-70
2023/06/13 03:51:17;;;;;;;2.63;1.37;;;;;;;;;;6273052;28;20021;-69
2023/06/13 03:54:20;;;;;;;2.03;1.53;;;;;;;;;;6272102;28;20048;-70
2023/06/13 03:57:20;;;;;;;1.50;1.35;;;;;;;;;;6265789;28;20402;-72
2023/06/13 04:00:20;;;;;;;1.70;1.30;;;;;;;;;;6255356;28;20041;-70
2023/06/13 04:03:20;;;;;;;1.37;1.20;;;;;;;;;;6263278;28;20129;-69
2023/06/13 04:06:21;;;;;;;1.50;1.20;;;;;;;;;;6254968;28;20028;-70
2023/06/13 04:09:22;;;;;;;3.53;1.40;;;;;;;;;;6262875;28;20013;-71
2023/06/13 04:12:22;;;;;;;1.70;1.35;;;;;;;;;;6267000;28;20040;-69
2023/06/13 04:15:23;;;;;;;1.33;1.23;;;;;;;;;;6258300;28;20045;-67
2023/06/13 04:18:24;;;;;;;1.33;1.23;;;;;;;;;;6258764;28;20019;-72
2023/06/13 04:21:25;;;;;;;1.60;1.27;;;;;;;;;;6253775;28;20040;-70
2023/06/13 04:24:25;;;;;;;2.22;1.17;;;;;;;;;;6248803;28;20029;-70
2023/06/13 04:27:29;;;;;;;1.30;1.20;;;;;;;;;;6249787;28;20128;-70
2023/06/13 04:30:30;;;;;;;2.08;1.50;;;;;;;;;;6252847;28;20016;-70
2023/06/13 04:33:30;;;;;;;1.60;1.30;;;;;;;;;;6251979;28;20010;-70
2023/06/13 04:36:33;;;;;;;1.87;1.10;;;;;;;;;;6252927;28;20091;-69
2023/06/13 04:39:36;;;;;;;1.40;1.20;;;;;;;;;;6249808;28;20031;-70
2023/06/13 04:42:37;;;;;;;2.63;1.25;;;;;;;;;;6257931;28;20500;-70
2023/06/13 04:45:38;;;;;;;3.58;1.25;;;;;;;;;;6260121;28;20025;-68
2023/06/13 04:48:38;;;;;;;2.23;1.60;;;;;;;;;;6248763;28;20026;-70
2023/06/13 04:51:40;;;;;;;1.43;1.33;;;;;;;;;;6248534;28;20388;-69
2023/06/13 04:54:40;;;;;;;3.70;1.40;;;;;;;;;;6247085;28;20021;-69
2023/06/13 04:57:41;;;;;;;3.80;1.40;;;;;;;;;;6253236;28;20157;-71
2023/06/13 05:00:41;;;;;;;2.03;1.40;;;;;;;;;;6248386;28;20093;-71
2023/06/13 05:03:42;;;;;;;2.40;1.30;;;;;;;;;;6262147;28;20421;-69
2023/06/13 05:06:42;;;;;;;4.15;1.45;;;;;;;;;;6255868;28;20029;-70
2023/06/13 05:09:43;;;;;;;2.77;1.63;;;;;;;;;;6258297;28;20443;-69
2023/06/13 05:12:43;;;;;;;1.83;1.43;;;;;;;;;;6252373;28;20482;-68
2023/06/13 05:15:45;;;;;;;5.20;1.60;;;;;;;;;;6249641;28;20036;-70
2023/06/13 05:18:46;;;;;;;;;;;;;;;;;;6251179;28;20506;-69
2023/06/13 05:21:47;;;;;;;3.50;1.33;;;;;;;;;;6249656;28;20300;-69
2023/06/13 05:24:48;;;;;;;3.60;1.80;;;;;;;;;;6248598;28;20025;-69
2023/06/13 05:27:48;;;;;;;;;;;;;;;;;;6263897;28;20017;-71
2023/06/13 05:30:51;;;;;;;2.80;1.30;;;;;;;;;;6257896;28;19919;-69
2023/06/13 05:33:57;;;;;;;1.77;1.52;;;;;;;;;;6252628;28;20021;-74
2023/06/13 05:36:57;;;;;;;2.10;1.73;;;;;;;;;;6261132;28;20048;-69
2023/06/13 05:39:57;;;;;;;1.53;1.40;;;;;;;;;;6257033;28;20051;-69
2023/06/13 05:42:58;;;;;;;2.10;1.47;;;;;;;;;;6270387;28;20029;-70
2023/06/13 05:45:58;;;;;;;1.87;1.40;;;;;;;;;;6269515;28;20044;-73
2023/06/13 05:48:58;;;;;;;2.73;1.70;;;;;;;;;;6281322;28;20033;-70
2023/06/13 05:51:59;;;;;;;1.70;1.60;;;;;;;;;;6273502;28;20021;-70
2023/06/13 05:54:59;;;;;;;1.60;1.50;;;;;;;;;;6270955;28;20024;-70
2023/06/13 05:57:59;;;;;;;3.45;1.80;;;;;;;;;;6268423;28;20018;-71
2023/06/13 06:01:01;;;;;;;4.33;1.73;;;;;;;;;;6266002;28;20088;-72
2023/06/13 06:04:01;;;;;;;2.10;1.85;;;;;;;;;;6267272;28;20052;-69
2023/06/13 06:07:02;;;;;;;3.87;1.73;;;;;;;;;;6273509;28;20021;-70
2023/06/13 06:10:03;;;;;;;2.83;1.60;;;;;;;;;;6274896;28;20024;-72
2023/06/13 06:13:03;;;;;;;2.13;1.73;;;;;;;;;;6276565;28;20021;-72
2023/06/13 06:16:04;;;;;;;2.73;1.43;;;;;;;;;;6273279;28;20036;-73
2023/06/13 06:19:04;;;;;;;3.28;1.70;;;;;;;;;;6270752;28;20090;-70
2023/06/13 06:22:04;;;;;;;3.67;1.87;;;;;;;;;;6271881;28;20056;-69
2023/06/13 06:25:05;;;;;;;4.28;1.88;;;;;;;;;;6270522;28;20021;-70
2023/06/13 06:28:05;;;;;;;3.58;1.80;;;;;;;;;;6277198;28;20455;-72
2023/06/13 06:31:06;;;;;;;3.47;1.50;;;;;;;;;;6275323;28;20017;-72
2023/06/13 06:34:06;;;;;;;;;;;;;;;;;;6276218;28;20052;-72
2023/06/13 06:37:07;;;;;;;1.77;1.17;;;;;;;;;;6264261;28;19992;-70
2023/06/13 06:40:08;;;;;;;2.45;1.60;;;;;;;;;;6263312;28;20020;-71
2023/06/13 06:43:08;;;;;;;1.48;1.35;;;;;;;;;;6259213;28;20036;-70
2023/06/13 06:46:09;;;;;;;4.90;1.80;;;;;;;;;;6262839;28;20025;-69
2023/06/13 06:49:09;;;;;;;1.47;1.37;;;;;;;;;;6263952;28;20027;-72
2023/06/13 06:52:09;;;;;;;1.83;1.70;;;;;;;;;;6259429;28;20021;-70
2023/06/13 06:55:09;;;;;;;6.40;1.97;;;;;;;;;;6264004;28;20040;-70
2023/06/13 06:58:10;;;;;;;3.13;1.50;;;;;;;;;;6266952;28;20028;-70
2023/06/13 07:01:10;;;;;;;3.03;1.35;;;;;;;;;;6263188;28;20695;-72
2023/06/13 07:04:10;;;;;;;2.17;1.70;;;;;;;;;;6275267;28;20111;-74
2023/06/13 07:07:11;;;;;;;3.07;1.63;;;;;;;;;;6269841;28;20111;-73
2023/06/13 07:10:11;;;;;;;;;;;;;;;;;;6264420;28;20085;-75
2023/06/13 07:13:11;;;;;;;2.45;1.30;;;;;;;;;;6267004;28;20366;-70
2023/06/13 07:16:11;;;;;;;3.53;1.30;;;;;;;;;;6257844;28;20047;-75
2023/06/13 07:19:11;;;;;;;;;;;;;;;;;;6264323;28;20033;-72
2023/06/13 07:22:11;;;;;;;3.35;1.45;;;;;;;;;;6264528;28;20397;-72
2023/06/13 07:25:12;;;;;;;;;;;;;;;;;;6259151;28;20025;-71
2023/06/13 07:28:12;;;;;;;2.67;1.33;;;;;;;;;;6274060;28;19909;-73
2023/06/13 07:31:12;;;;;;;;;;;;;;;;;;6265559;28;20482;-71
2023/06/13 07:34:12;;;;;;;1.63;1.17;;;;;;;;;;6268603;28;19908;-79
2023/06/13 07:37:12;;;;;;;;;;;;;;;;;;6266511;28;20032;-71
2023/06/13 07:40:13;;;;;;;1.10;1.08;;;;;;;;;;6269035;28;19913;-73
2023/06/13 07:43:13;;;;;;;;;;;;;;;;;;6264434;28;20036;-72
2023/06/13 07:46:13;;;;;;;1.20;1.10;;;;;;;;;;6272994;28;19917;-75
2023/06/13 07:49:14;;;;;;;1.40;1.30;;;;;;;;;;6270774;28;20103;-74
2023/06/13 07:52:14;;;;;;;1.98;1.30;;;;;;;;;;6254242;28;20021;-71
2023/06/13 07:55:15;;;;;;;1.70;1.60;;;;;;;;;;6250065;28;20074;-71
2023/06/13 07:58:15;;;;;;;1.85;1.50;;;;;;;;;;6256294;28;20400;-71
2023/06/13 08:01:15;;;;;;;2.75;1.25;;;;;;;;;;6247763;28;20116;-70
2023/06/13 08:04:16;;;;;;;1.75;1.50;;;;;;;;;;6248900;28;20029;-74
2023/06/13 08:07:17;;;;;;;1.83;1.27;;;;;;;;;;6250347;28;20041;-71
2023/06/13 08:10:17;;;;;;;1.42;1.30;;;;;;;;;;6254830;28;20075;-71
2023/06/13 08:13:17;;;;;;;1.50;1.15;;;;;;;;;;6255836;28;20014;-75
2023/06/13 08:16:18;;;;;;;4.43;1.48;;;;;;;;;;6256555;28;20056;-73
2023/06/13 08:19:18;;;;;;;2.60;1.50;;;;;;;;;;6255607;28;20069;-71
2023/06/13 08:22:18;;;;;;;1.83;1.38;;;;;;;;;;6253562;28;20029;-71
2023/06/13 08:25:18;;;;;;;1.53;1.20;;;;;;;;;;6246680;28;20115;-75
2023/06/13 08:28:19;;;;;;;2.33;1.53;;;;;;;;;;6256040;28;20371;-70
2023/06/13 08:31:23;;;;;;;1.33;1.23;;;;;;;;;;6253977;28;20267;-74
2023/06/13 08:34:24;;;;;;;1.77;1.30;;;;;;;;;;6256708;28;20298;-73
2023/06/13 08:37:24;;;;;;;1.17;1.07;;;;;;;;;;6260459;28;20025;-73
2023/06/13 08:40:24;;;;;;;2.17;1.43;;;;;;;;;;6258277;28;20123;-74
2023/06/13 08:43:24;;;;;;;2.25;1.60;;;;;;;;;;6256508;28;20307;-72
2023/06/13 08:46:25;;;;;;;2.00;1.33;;;;;;;;;;6252714;28;20033;-72
2023/06/13 08:49:25;;;;;;;2.65;1.70;;;;;;;;;;6250941;28;20030;-71
2023/06/13 08:52:29;;;;;;;2.60;1.60;;;;;;;;;;6258305;28;20069;-71
2023/06/13 08:55:32;;;;;;;3.08;1.88;;;;;;;;;;6257253;28;20283;-67
2023/06/13 08:58:33;;;;;;;3.80;1.48;;;;;;;;;;6255121;28;20021;-68
2023/06/13 09:01:35;;;;;;;4.57;1.52;;;;;;;;;;6251431;28;20024;-70
2023/06/13 09:04:36;;;;;;;2.45;1.80;;;;;;;;;;6255669;28;20029;-69
2023/06/13 09:07:36;;;;;;;1.73;1.63;;;;;;;;;;6258127;28;20021;-66
2023/06/13 09:10:37;;;;;;;1.40;1.30;;;;;;;;;;6251697;28;20047;-66
2023/06/13 09:13:38;;;;;;;1.33;1.15;;;;;;;;;;6254289;28;20029;-67
2023/06/13 09:16:38;;;;;;;1.65;1.38;;;;;;;;;;6252706;28;20086;-65
2023/06/13 09:19:39;;;;;;;2.10;1.38;;;;;;;;;;6249597;28;20524;-64
2023/06/13 09:22:40;;;;;;;2.10;1.65;;;;;;;;;;6251541;28;20116;-66
2023/06/13 09:25:41;;;;;;;1.40;1.20;;;;;;;;;;6255329;28;20017;-68
2023/06/13 09:28:42;;;;;;;1.73;1.40;;;;;;;;;;6254223;28;20478;-67
2023/06/13 09:31:42;;;;;;;4.05;1.63;;;;;;;;;;6256694;28;20024;-69
2023/06/13 09:34:45;;;;;;;1.40;1.23;;;;;;;;;;6254308;28;20063;-70
2023/06/13 09:37:46;;;;;;;2.30;1.70;;;;;;;;;;6254648;28;20412;-69
2023/06/13 09:40:46;;;;;;;1.95;1.50;;;;;;;;;;6261431;28;20389;-67
2023/06/13 09:43:50;;;;;;;2.20;1.50;;;;;;;;;;6257646;28;20028;-67
2023/06/13 09:46:50;;;;;;;2.97;1.60;;;;;;;;;;6265243;28;20024;-68
2023/06/13 09:49:55;;;;;;;1.75;1.65;;;;;;;;;;6264981;28;20082;-66
2023/06/13 09:52:56;;;;;;;1.60;1.50;;;;;;;;;;6260871;28;20021;-66
2023/06/13 09:55:56;;;;;;;2.37;1.40;;;;;;;;;;6256014;28;20025;-69
2023/06/13 09:58:56;;;;;;;2.17;1.70;;;;;;;;;;6264536;28;20025;-67
2023/06/13 10:01:56;;;;;;;1.97;1.57;;;;;;;;;;6255257;28;20366;-67
2023/06/13 10:04:56;;;;;;;3.30;1.70;;;;;;;;;;6253136;28;20032;-72
2023/06/13 10:07:57;;;;;;;2.77;1.70;;;;;;;;;;6264995;28;20021;-70
2023/06/13 10:10:59;;;;;;;1.50;1.40;;;;;;;;;;6254507;28;20423;-70
2023/06/13 10:14:05;;;;;;;1.70;1.60;;;;;;;;;;6259637;28;20365;-69
2023/06/13 10:17:08;;;;;;;1.50;1.35;;;;;;;;;;6265754;28;20021;-71
2023/06/13 10:20:10;;;;;;;2.53;1.48;;;;;;;;;;6255269;28;20045;-72
2023/06/13 10:23:13;;;;;;;1.73;1.60;;;;;;;;;;6254702;28;20161;-69
2023/06/13 10:26:16;;;;;;;1.50;1.40;;;;;;;;;;6255752;28;20044;-69
2023/06/13 10:29:35;;;;;;;1.45;1.35;;;;;;;;;;6282010;28;20124;-71
2023/06/13 10:32:54;;;;;;;1.55;1.45;;;;;;;;;;6249955;28;20029;-69
2023/06/13 10:36:00;;;;;;;1.52;1.42;;;;;;;;;;6256690;28;20029;-74
2023/06/13 10:39:10;;;;;;;2.55;1.65;;;;;;;;;;6261576;28;20113;-71
2023/06/13 10:42:16;;;;;;;2.15;1.50;;;;;;;;;;6258151;28;20021;-72
2023/06/13 10:45:21;;;;;;;2.55;1.58;;;;;;;;;;6256619;28;20127;-69
2023/06/13 10:48:34;;;;;;;2.05;1.38;;;;;;;;;;6259867;28;20100;-72
2023/06/13 10:51:36;;;;;;;4.13;1.70;;;;;;;;;;6265297;28;20032;-73
2023/06/13 10:54:37;;;;;;;2.85;1.70;;;;;;;;;;6268922;28;20995;-72
2023/06/13 10:57:50;;;;;;;3.97;1.70;;;;;;;;;;6272452;28;20027;-69
2023/06/13 11:00:50;;;;;;;2.20;1.45;;;;;;;;;;6265510;28;20071;-63
2023/06/13 11:03:51;;;;;;;2.43;1.50;;;;;;;;;;6253411;28;20025;-65
2023/06/13 11:06:54;;;;;;;2.07;1.30;;;;;;;;;;6245886;28;20792;-66
2023/06/13 11:10:02;;;;;;;2.63;1.42;;;;;;;;;;6245799;28;20029;-65
2023/06/13 11:13:02;;;;;;;2.58;1.50;;;;;;;;;;6247902;28;20021;-67
2023/06/13 11:16:32;;;;;;;2.22;1.42;;;;;;;;;;6250140;28;20067;-68
2023/06/13 11:19:33;;;;;;;1.60;1.50;;;;;;;;;;6249944;28;20044;-68
2023/06/13 11:22:34;;;;;;;2.38;1.40;;;;;;;;;;6249473;28;20533;-68
2023/06/13 11:25:34;;;;;;;1.30;1.20;;;;;;;;;;6249194;28;20028;-68
2023/06/13 11:28:34;;;;;;;2.33;1.70;;;;;;;;;;6250071;28;20017;-73
2023/06/13 11:31:36;;;;;;;1.85;1.75;;;;;;;;;;6258054;28;20013;-67
2023/06/13 11:34:43;;;;;;;2.20;1.52;;;;;;;;;;6249314;28;20481;-67
2023/06/13 11:37:48;;;;;;;1.80;1.70;;;;;;;;;;6245835;28;20021;-66
2023/06/13 11:40:59;;;;;;;1.95;1.65;;;;;;;;;;6248752;28;20032;-65
2023/06/13 11:43:59;;;;;;;1.73;1.60;;;;;;;;;;6247932;28;20185;-68
2023/06/13 11:47:03;;;;;;;1.75;1.63;;;;;;;;;;6023384;28;10000389;-66
2023/06/13 11:50:04;;;;;;;2.88;1.83;;;;;;;;;;6247644;28;20309;-67
2023/06/13 11:53:08;;;;;;;1.52;1.42;;;;;;;;;;6244981;28;20025;-68
2023/06/13 11:56:08;;;;;;;2.75;1.80;;;;;;;;;;6245757;28;20028;-66
2023/06/13 11:59:16;;;;;;;2.00;1.80;;;;;;;;;;6245703;28;20392;-66
2023/06/13 12:02:18;;;;;;;2.35;1.63;;;;;;;;;;6243172;28;20025;-67
2023/06/13 12:05:18;;;;;;;1.80;1.70;;;;;;;;;;6244249;28;21052;-67
2023/06/13 12:08:18;;;;;;;2.03;1.77;;;;;;;;;;6245527;28;20024;-67
2023/06/13 12:11:20;;;;;;;1.85;1.65;;;;;;;;;;6248299;28;20079;-65
2023/06/13 12:14:20;;;;;;;1.95;1.77;;;;;;;;;;6245021;28;20032;-67
2023/06/13 12:17:23;;;;;;;2.38;1.60;;;;;;;;;;6248394;28;20025;-66
2023/06/13 12:20:24;;;;;;;2.67;1.80;;;;;;;;;;6241178;28;20036;-66
2023/06/13 12:23:26;;;;;;;7.05;2.50;;;;;;;;;;6244478;28;20022;-68
2023/06/13 12:26:28;;;;;;;6.97;2.28;;;;;;;;;;6248020;28;20141;-68
2023/06/13 12:29:31;;;;;;;2.10;1.90;;;;;;;;;;6244328;28;20056;-66
2023/06/13 12:32:32;;;;;;;2.38;1.75;;;;;;;;;;6246890;28;20041;-68
2023/06/13 12:35:32;;;;;;;2.50;1.60;;;;;;;;;;6245572;28;20405;-66
2023/06/13 12:38:33;;;;;;;3.07;1.83;;;;;;;;;;6248846;28;20167;-68
2023/06/13 12:41:33;;;;;;;5.47;2.40;;;;;;;;;;6246384;28;20025;-66
2023/06/13 12:44:34;;;;;;;3.97;2.00;;;;;;;;;;6249075;28;20032;-67
2023/06/13 12:47:34;;;;;;;2.97;2.28;;;;;;;;;;6243632;28;20025;-67
2023/06/13 12:50:37;;;;;;;3.63;2.25;;;;;;;;;;6247275;28;20013;-67
2023/06/13 12:53:37;;;;;;;2.42;2.25;;;;;;;;;;6246228;28;20402;-66
2023/06/13 12:56:41;;;;;;;3.83;2.40;;;;;;;;;;6251996;28;20032;-67
2023/06/13 12:59:42;;;;;;;2.00;1.90;;;;;;;;;;6248564;28;21024;-68
2023/06/13 13:02:43;;;;;;;2.60;2.40;;;;;;;;;;6247732;28;20020;-65
2023/06/13 13:05:43;;;;;;;2.53;2.33;;;;;;;;;;6253087;28;20048;-64
2023/06/13 13:08:43;;;;;;;2.67;2.40;;;;;;;;;;6247483;28;20017;-66
2023/06/13 13:11:44;;;;;;;2.40;2.20;;;;;;;;;;6248140;28;20025;-65
2023/06/13 13:14:44;;;;;;;3.27;2.60;;;;;;;;;;6247265;28;20017;-67
2023/06/13 13:17:45;;;;;;;2.83;2.63;;;;;;;;;;6253776;28;20094;-65
2023/06/13 13:20:45;;;;;;;2.00;1.80;;;;;;;;;;6249064;28;20439;-66
2023/06/13 13:23:45;;;;;;;3.23;2.57;;;;;;;;;;6246336;28;20055;-69
2023/06/13 13:26:47;;;;;;;2.60;2.50;;;;;;;;;;6249119;28;20021;-66
2023/06/13 13:29:47;;;;;;;2.50;2.30;;;;;;;;;;6246345;28;20029;-66
2023/06/13 13:32:50;;;;;;;2.50;2.40;;;;;;;;;;6247312;28;20028;-67
2023/06/13 13:35:51;;;;;;;2.30;2.17;;;;;;;;;;6248080;28;20033;-67
2023/06/13 13:38:52;;;;;;;2.67;2.47;;;;;;;;;;6244556;28;20036;-66
2023/06/13 13:41:52;;;;;;;3.58;2.60;;;;;;;;;;6244630;28;20112;-67
2023/06/13 13:44:53;;;;;;;2.80;2.70;;;;;;;;;;6248180;28;20036;-67
2023/06/13 13:47:54;;;;;;;3.00;2.45;;;;;;;;;;6251093;28;20025;-67
2023/06/13 13:50:54;;;;;;;2.65;2.45;;;;;;;;;;6250993;28;20043;-66
2023/06/13 13:53:55;;;;;;;2.90;2.70;;;;;;;;;;6247211;28;20087;-65
2023/06/13 13:56:56;;;;;;;3.38;3.08;;;;;;;;;;6247445;28;20056;-66
2023/06/13 13:59:57;;;;;;;3.13;2.92;;;;;;;;;;6248287;28;20332;-67
2023/06/13 14:02:58;;;;;;;3.45;3.25;;;;;;;;;;6253583;28;20065;-66
2023/06/13 14:05:58;;;;;;;2.87;2.70;;;;;;;;;;6249969;28;20021;-67
2023/06/13 14:08:58;;;;;;;3.33;3.13;;;;;;;;;;6248578;28;20175;-66
2023/06/13 14:11:58;;;;;;;3.53;2.63;;;;;;;;;;6246811;28;20025;-66
2023/06/13 14:14:59;;;;;;;3.07;2.40;;;;;;;;;;6249235;28;20020;-67
2023/06/13 14:17:59;;;;;;;2.97;2.37;;;;;;;;;;6246424;28;20052;-66
2023/06/13 14:20:59;;;;;;;2.73;2.53;;;;;;;;;;6247736;28;20025;-66
2023/06/13 14:24:00;;;;;;;2.78;2.60;;;;;;;;;;6246344;28;20028;-65
2023/06/13 14:27:00;;;;;;;3.00;2.80;;;;;;;;;;6242202;28;20108;-66
2023/06/13 14:30:00;;;;;;;3.53;2.90;;;;;;;;;;6249920;28;20081;-67
2023/06/13 14:33:01;;;;;;;3.23;3.03;;;;;;;;;;6258742;28;20115;-67
2023/06/13 14:36:02;;;;;;;3.08;2.88;;;;;;;;;;6254671;28;20424;-65
2023/06/13 14:39:05;;;;;;;3.28;2.80;;;;;;;;;;6246825;28;20066;-65
2023/06/13 14:42:05;;;;;;;3.47;2.45;;;;;;;;;;6248307;28;20115;-66
2023/06/13 14:45:06;;;;;;;2.88;1.70;;;;;;;;;;6254198;28;20347;-66
2023/06/13 14:48:06;;;;;;;1.53;1.43;;;;;;;;;;6239400;28;20158;-67
2023/06/13 14:51:07;;;;;;;1.60;1.50;;;;;;;;;;6245463;28;20307;-67
2023/06/13 14:54:08;;;;;;;1.57;1.47;;;;;;;;;;6245281;28;20152;-66
2023/06/13 14:57:10;;;;;;;1.98;1.88;;;;;;;;;;6246697;28;20027;-66
2023/06/13 15:00:10;;;;;;;2.47;1.92;;;;;;;;;;6242267;28;20033;-66
2023/06/13 15:03:10;;;;;;;3.22;2.20;;;;;;;;;;6246116;28;20549;-65
2023/06/13 15:06:11;;;;;;;2.43;2.00;;;;;;;;;;6248040;28;20107;-66
2023/06/13 15:09:12;;;;;;;3.45;2.40;;;;;;;;;;6247447;28;20024;-66
2023/06/13 15:12:12;;;;;;;2.80;1.98;;;;;;;;;;6253231;28;20036;-67
2023/06/13 15:15:12;;;;;;;2.10;2.00;;;;;;;;;;6247770;28;20405;-67
2023/06/13 15:18:13;;;;;;;2.17;1.97;;;;;;;;;;6246480;28;20028;-67
2023/06/13 15:21:13;;;;;;;1.80;1.70;;;;;;;;;;6246857;28;20348;-68
2023/06/13 15:24:13;;;;;;;2.00;1.90;;;;;;;;;;6246141;28;20025;-68
2023/06/13 15:27:13;;;;;;;1.90;1.80;;;;;;;;;;6248197;28;20021;-66
2023/06/13 15:30:14;;;;;;;3.50;1.87;;;;;;;;;;6246508;28;20764;-66
2023/06/13 15:33:15;;;;;;;1.90;1.80;;;;;;;;;;6251716;28;20275;-67
2023/06/13 15:36:15;;;;;;;1.83;1.73;;;;;;;;;;6248436;28;20537;-67
2023/06/13 15:39:16;;;;;;;1.60;1.50;;;;;;;;;;6243733;28;20086;-68
2023/06/13 15:42:17;;;;;;;2.97;1.63;;;;;;;;;;6245745;28;20051;-67
2023/06/13 15:45:17;;;;;;;3.08;1.50;;;;;;;;;;6245881;28;20248;-66
2023/06/13 15:48:18;;;;;;;1.92;1.40;;;;;;;;;;6245787;28;20140;-67
2023/06/13 15:51:18;;;;;;;1.50;1.40;;;;;;;;;;6247619;28;20029;-67
2023/06/13 15:54:18;;;;;;;1.47;1.30;;;;;;;;;;6246296;28;20755;-67
2023/06/13 15:57:18;;;;;;;1.53;1.30;;;;;;;;;;6253028;28;20032;-67
2023/06/13 16:00:22;;;;;;;3.27;1.50;;;;;;;;;;6247218;28;20029;-66
2023/06/13 16:03:23;;;;;;;2.85;1.30;;;;;;;;;;6241187;28;20025;-66
2023/06/13 16:06:24;;;;;;;1.25;1.10;;;;;;;;;;6252215;28;20025;-68
2023/06/13 16:09:24;;;;;;;2.72;1.38;;;;;;;;;;6253919;28;20108;-71
2023/06/13 16:12:24;;;;;;;1.58;1.33;;;;;;;;;;6253326;28;20020;-71
2023/06/13 16:15:25;;;;;;;4.93;1.50;;;;;;;;;;6250539;28;20029;-71
2023/06/13 16:18:25;;;;;;;1.40;1.13;;;;;;;;;;6250113;28;20072;-70
2023/06/13 16:21:25;;;;;;;3.70;1.20;;;;;;;;;;6255647;28;20051;-71
2023/06/13 16:24:26;;;;;;;1.25;1.15;;;;;;;;;;6256486;28;20319;-72
2023/06/13 16:27:27;;;;;;;2.63;1.40;;;;;;;;;;6254454;28;20072;-70
2023/06/13 16:30:27;;;;;;;4.18;1.40;;;;;;;;;;6249573;28;20439;-71
2023/06/13 16:33:27;;;;;;;1.52;1.33;;;;;;;;;;6253462;28;20454;-71
2023/06/13 16:36:27;;;;;;;2.58;1.40;;;;;;;;;;6255545;28;20036;-71
2023/06/13 16:39:28;;;;;;;1.77;1.50;;;;;;;;;;6247743;28;20025;-71
2023/06/13 16:42:28;;;;;;;2.00;1.40;;;;;;;;;;6250256;28;20017;-72
2023/06/13 16:45:29;;;;;;;1.40;1.20;;;;;;;;;;6257433;28;20425;-71
2023/06/13 16:48:29;;;;;;;2.25;1.33;;;;;;;;;;6252603;28;20610;-70
2023/06/13 16:51:29;;;;;;;2.30;1.60;;;;;;;;;;6252155;28;20375;-71
2023/06/13 16:54:30;;;;;;;1.92;1.27;;;;;;;;;;6256124;28;20033;-72
2023/06/13 16:57:30;;;;;;;2.33;1.40;;;;;;;;;;6253502;28;20033;-71
2023/06/13 17:00:30;;;;;;;1.90;1.50;;;;;;;;;;5901713;28;10000394;-70
2023/06/13 17:03:31;;;;;;;1.70;1.33;;;;;;;;;;6247432;28;20155;-70
2023/06/13 17:06:31;;;;;;;1.90;1.50;;;;;;;;;;6248587;28;20406;-71
2023/06/13 17:09:33;;;;;;;3.03;1.38;;;;;;;;;;6244223;28;20036;-71
2023/06/13 17:12:33;;;;;;;2.20;1.50;;;;;;;;;;6246505;28;20095;-70
2023/06/13 17:15:33;;;;;;;4.18;1.40;;;;;;;;;;6251144;28;20520;-70
2023/06/13 17:18:34;;;;;;;3.93;1.30;;;;;;;;;;6246417;28;20101;-71
2023/06/13 17:21:35;;;;;;;2.55;1.60;;;;;;;;;;6248613;28;20271;-70
2023/06/13 17:24:35;;;;;;;3.38;1.52;;;;;;;;;;6249028;28;20023;-70
2023/06/13 17:27:35;;;;;;;3.67;1.58;;;;;;;;;;6260295;28;20029;-70
2023/06/13 17:30:35;;;;;;;1.80;1.30;;;;;;;;;;6254749;28;20033;-70
2023/06/13 17:33:36;;;;;;;1.33;1.23;;;;;;;;;;6260026;28;20275;-70
2023/06/13 17:36:36;;;;;;;2.20;1.43;;;;;;;;;;6250173;28;20029;-69
2023/06/13 17:39:37;;;;;;;2.63;1.63;;;;;;;;;;6243456;28;20029;-72
2023/06/13 17:42:37;;;;;;;2.00;1.30;;;;;;;;;;6245635;28;20268;-71
2023/06/13 17:45:38;;;;;;;2.08;1.42;;;;;;;;;;6250477;28;20090;-71
2023/06/13 17:48:38;;;;;;;2.03;1.60;;;;;;;;;;6260658;28;20017;-71
2023/06/13 17:51:38;;;;;;;2.03;1.30;;;;;;;;;;6260293;28;20267;-72
2023/06/13 17:54:40;;;;;;;1.80;1.27;;;;;;;;;;6252387;28;20419;-71
2023/06/13 17:57:40;;;;;;;1.20;1.00;;;;;;;;;;6257676;28;20059;-71
2023/06/13 18:00:40;;;;;;;2.35;1.38;;;;;;;;;;6250438;28;20021;-70
2023/06/13 18:03:41;;;;;;;2.92;1.27;;;;;;;;;;6245537;28;20168;-70
2023/06/13 18:06:41;;;;;;;1.65;1.38;;;;;;;;;;6252175;28;20040;-70
2023/06/13 18:09:41;;;;;;;2.70;1.35;;;;;;;;;;6256098;28;20029;-68